sensor_id;sensor_type;location;lat;lon;timestamp;pressure;altitude;pressure_sealevel;temperature;humidity
77588;BME280;66745;49.716;17.158;2023-02-03T00:00:21;99773.41;;;22.59;30.78
77588;BME280;66745;49.716;17.158;2023-02-03T00:03:21;99768.28;;;22.58;30.27
77588;BME280;66745;49.716;17.158;2023-02-03T00:06:22;99771.09;;;22.58;30.66
77588;BME280;66745;49.716;17.158;2023-02-03T00:09:22;99769.06;;;22.58;30.22
77588;BME280;66745;49.716;17.158;2023-02-03T00:12:23;99763.94;;;22.57;29.94
77588;BME280;66745;49.716;17.158;2023-02-03T00:15:23;99770.06;;;22.55;30.42
77588;BME280;66745;49.716;17.158;2023-02-03T00:18:23;99772.09;;;22.55;30.61
77588;BME280;66745;49.716;17.158;2023-02-03T00:21:23;99772.09;;;22.55;30.19
77588;BME280;66745;49.716;17.158;2023-02-03T00:24:24;99764.19;;;22.53;30.05
77588;BME280;66745;49.716;17.158;2023-02-03T00:27:24;99760.63;;;22.53;29.82
77588;BME280;66745;49.716;17.158;2023-02-03T00:30:25;99768.25;;;22.52;30.62
77588;BME280;66745;49.716;17.158;2023-02-03T00:33:25;99777.16;;;22.51;29.80
77588;BME280;66745;49.716;17.158;2023-02-03T00:36:25;99771.53;;;22.51;30.01
77588;BME280;66745;49.716;17.158;2023-02-03T00:39:26;99772.06;;;22.49;29.65
77588;BME280;66745;49.716;17.158;2023-02-03T00:42:26;99772.81;;;22.50;29.78
77588;BME280;66745;49.716;17.158;2023-02-03T00:45:26;99776.09;;;22.48;30.03
77588;BME280;66745;49.716;17.158;2023-02-03T00:48:27;99785.28;;;22.49;29.81
77588;BME280;66745;49.716;17.158;2023-02-03T00:51:27;99789.34;;;22.48;29.96
77588;BME280;66745;49.716;17.158;2023-02-03T00:54:27;99781.44;;;22.46;29.85
77588;BME280;66745;49.716;17.158;2023-02-03T00:57:28;99777.09;;;22.45;30.56
77588;BME280;66745;49.716;17.158;2023-02-03T01:00:28;99774.31;;;22.45;29.91
77588;BME280;66745;49.716;17.158;2023-02-03T01:03:28;99774.31;;;22.45;29.54
77588;BME280;66745;49.716;17.158;2023-02-03T01:06:29;99772.03;;;22.44;29.50
77588;BME280;66745;49.716;17.158;2023-02-03T01:09:32;99762.84;;;22.43;30.01
77588;BME280;66745;49.716;17.158;2023-02-03T01:12:32;99761.31;;;22.42;29.59
77588;BME280;66745;49.716;17.158;2023-02-03T01:15:32;99756.97;;;22.41;30.49
77588;BME280;66745;49.716;17.158;2023-02-03T01:18:33;99759.00;;;22.41;30.37
77588;BME280;66745;49.716;17.158;2023-02-03T01:21:33;99761.81;;;22.41;29.49
77588;BME280;66745;49.716;17.158;2023-02-03T01:24:35;99753.91;;;22.39;29.37
77588;BME280;66745;49.716;17.158;2023-02-03T01:27:35;99747.56;;;22.39;29.38
77588;BME280;66745;49.716;17.158;2023-02-03T01:30:35;99743.22;;;22.38;29.84
77588;BME280;66745;49.716;17.158;2023-02-03T01:33:36;99749.59;;;22.38;30.48
77588;BME280;66745;49.716;17.158;2023-02-03T01:36:39;99750.06;;;22.37;29.81
77588;BME280;66745;49.716;17.158;2023-02-03T01:39:39;99740.16;;;22.36;30.07
77588;BME280;66745;49.716;17.158;2023-02-03T01:42:40;99747.78;;;22.35;29.39
77588;BME280;66745;49.716;17.158;2023-02-03T01:45:40;99741.41;;;22.35;29.77
77588;BME280;66745;49.716;17.158;2023-02-03T01:48:40;99743.44;;;22.34;29.89
77588;BME280;66745;49.716;17.158;2023-02-03T01:51:41;99739.84;;;22.34;29.69
77588;BME280;66745;49.716;17.158;2023-02-03T01:54:42;99742.66;;;22.34;29.68
77588;BME280;66745;49.716;17.158;2023-02-03T01:57:46;99738.34;;;22.33;29.87
77588;BME280;66745;49.716;17.158;2023-02-03T02:00:48;99742.41;;;22.32;29.65
77588;BME280;66745;49.716;17.158;2023-02-03T02:03:52;99739.59;;;22.32;29.97
77588;BME280;66745;49.716;17.158;2023-02-03T02:06:55;99726.84;;;22.31;30.27
77588;BME280;66745;49.716;17.158;2023-02-03T02:09:55;99727.38;;;22.29;29.28
77588;BME280;66745;49.716;17.158;2023-02-03T02:12:56;99724.56;;;22.29;29.58
77588;BME280;66745;49.716;17.158;2023-02-03T02:15:59;99716.66;;;22.28;29.15
77588;BME280;66745;49.716;17.158;2023-02-03T02:22:19;99705.97;;;22.26;29.39
77588;BME280;66745;49.716;17.158;2023-02-03T02:28:29;99698.81;;;22.25;29.49
77588;BME280;66745;49.716;17.158;2023-02-03T02:34:42;99685.34;;;22.24;29.84
77588;BME280;66745;49.716;17.158;2023-02-03T02:38:20;99685.06;;;22.22;28.99
77588;BME280;66745;49.716;17.158;2023-02-03T02:44:40;99680.22;;;22.22;30.03
77588;BME280;66745;49.716;17.158;2023-02-03T02:47:43;99661.16;;;22.21;29.49
77588;BME280;66745;49.716;17.158;2023-02-03T02:50:44;99649.94;;;22.21;29.04
77588;BME280;66745;49.716;17.158;2023-02-03T02:53:46;99647.63;;;22.19;29.92
77588;BME280;66745;49.716;17.158;2023-02-03T02:56:50;99650.44;;;22.19;29.41
77588;BME280;66745;49.716;17.158;2023-02-03T02:59:52;99645.34;;;22.18;29.99
77588;BME280;66745;49.716;17.158;2023-02-03T03:02:53;99638.22;;;22.17;29.21
77588;BME280;66745;49.716;17.158;2023-02-03T03:05:58;99651.44;;;22.16;28.93
77588;BME280;66745;49.716;17.158;2023-02-03T03:09:14;99665.44;;;22.16;29.62
77588;BME280;66745;49.716;17.158;2023-02-03T03:12:17;99676.63;;;22.16;29.96
77588;BME280;66745;49.716;17.158;2023-02-03T03:15:21;99679.94;;;22.14;29.35
77588;BME280;66745;49.716;17.158;2023-02-03T03:18:24;99674.34;;;22.14;29.70
77588;BME280;66745;49.716;17.158;2023-02-03T03:21:29;99679.16;;;22.14;29.26
77588;BME280;66745;49.716;17.158;2023-02-03T03:24:39;99670.75;;;22.14;29.56
77588;BME280;66745;49.716;17.158;2023-02-03T03:27:41;99679.66;;;22.12;28.96
77588;BME280;66745;49.716;17.158;2023-02-03T03:30:44;99659.31;;;22.12;29.38
77588;BME280;66745;49.716;17.158;2023-02-03T03:33:44;99650.16;;;22.11;29.16
77588;BME280;66745;49.716;17.158;2023-02-03T03:37:00;99658.53;;;22.11;28.98
77588;BME280;66745;49.716;17.158;2023-02-03T03:40:07;99661.06;;;22.09;29.59
77588;BME280;66745;49.716;17.158;2023-02-03T03:43:13;99650.63;;;22.10;29.01
77588;BME280;66745;49.716;17.158;2023-02-03T03:46:24;99646.31;;;22.09;29.82
77588;BME280;66745;49.716;17.158;2023-02-03T03:49:26;99641.97;;;22.08;29.33
77588;BME280;66745;49.716;17.158;2023-02-03T03:52:28;99639.19;;;22.08;29.63
77588;BME280;66745;49.716;17.158;2023-02-03T03:55:30;99640.44;;;22.07;29.82
77588;BME280;66745;49.716;17.158;2023-02-03T03:58:32;99643.22;;;22.07;29.95
77588;BME280;66745;49.716;17.158;2023-02-03T04:01:32;99628.47;;;22.06;28.87
77588;BME280;66745;49.716;17.158;2023-02-03T04:04:33;99625.66;;;22.06;29.04
77588;BME280;66745;49.716;17.158;2023-02-03T04:07:38;99610.16;;;22.05;28.88
77588;BME280;66745;49.716;17.158;2023-02-03T04:10:40;99607.38;;;22.05;29.75
77588;BME280;66745;49.716;17.158;2023-02-03T04:13:41;99601.47;;;22.03;29.46
77588;BME280;66745;49.716;17.158;2023-02-03T04:16:41;99588.78;;;22.02;29.72
77588;BME280;66745;49.716;17.158;2023-02-03T04:19:42;99593.59;;;22.02;29.49
77588;BME280;66745;49.716;17.158;2023-02-03T04:22:42;99599.97;;;22.02;28.80
77588;BME280;66745;49.716;17.158;2023-02-03T04:25:42;99594.84;;;22.01;29.24
77588;BME280;66745;49.716;17.158;2023-02-03T04:28:43;99598.44;;;22.01;29.33
77588;BME280;66745;49.716;17.158;2023-02-03T04:31:43;99603.25;;;22.01;29.46
77588;BME280;66745;49.716;17.158;2023-02-03T04:34:44;99599.69;;;22.00;29.70
77588;BME280;66745;49.716;17.158;2023-02-03T04:37:44;99586.97;;;21.99;29.71
77588;BME280;66745;49.716;17.158;2023-02-03T04:40:45;99584.19;;;21.99;28.94
77588;BME280;66745;49.716;17.158;2023-02-03T04:43:45;99571.94;;;21.97;28.84
77588;BME280;66745;49.716;17.158;2023-02-03T04:46:45;99555.91;;;21.97;29.29
77588;BME280;66745;49.716;17.158;2023-02-03T04:49:46;99557.19;;;21.96;29.47
77588;BME280;66745;49.716;17.158;2023-02-03T04:52:46;99560.00;;;21.96;29.37
77588;BME280;66745;49.716;17.158;2023-02-03T04:55:47;99554.41;;;21.96;28.79
77588;BME280;66745;49.716;17.158;2023-02-03T04:58:47;99548.53;;;21.94;29.84
77588;BME280;66745;49.716;17.158;2023-02-03T05:01:48;99542.94;;;21.94;29.76
77588;BME280;66745;49.716;17.158;2023-02-03T05:04:48;99550.56;;;21.94;29.73
77588;BME280;66745;49.716;17.158;2023-02-03T05:07:48;99541.41;;;21.93;29.78
77588;BME280;66745;49.716;17.158;2023-02-03T05:10:49;99535.03;;;21.93;29.61
77588;BME280;66745;49.716;17.158;2023-02-03T05:13:49;99511.13;;;21.92;28.82
77588;BME280;66745;49.716;17.158;2023-02-03T05:16:49;99511.88;;;21.92;29.79
77588;BME280;66745;49.716;17.158;2023-02-03T05:19:50;99499.19;;;21.91;29.56
77588;BME280;66745;49.716;17.158;2023-02-03T05:22:50;99506.81;;;21.91;29.63
77588;BME280;66745;49.716;17.158;2023-02-03T05:25:50;99500.44;;;21.90;29.35
77588;BME280;66745;49.716;17.158;2023-02-03T05:28:51;99498.91;;;21.89;29.65
77588;BME280;66745;49.716;17.158;2023-02-03T05:31:51;99487.69;;;21.89;28.87
77588;BME280;66745;49.716;17.158;2023-02-03T05:34:51;99488.47;;;21.90;29.84
77588;BME280;66745;49.716;17.158;2023-02-03T05:37:52;99484.69;;;21.93;30.24
77588;BME280;66745;49.716;17.158;2023-02-03T05:40:52;99479.09;;;21.93;29.68
77588;BME280;66745;49.716;17.158;2023-02-03T05:44:11;99469.16;;;21.92;30.12
77588;BME280;66745;49.716;17.158;2023-02-03T05:47:11;99474.00;;;21.91;30.31
77588;BME280;66745;49.716;17.158;2023-02-03T05:50:12;99476.03;;;21.91;29.82
77588;BME280;66745;49.716;17.158;2023-02-03T05:53:12;99455.69;;;21.90;30.23
77588;BME280;66745;49.716;17.158;2023-02-03T05:56:12;99452.88;;;21.90;29.95
77588;BME280;66745;49.716;17.158;2023-02-03T05:59:13;99451.34;;;21.89;29.74
77588;BME280;66745;49.716;17.158;2023-02-03T06:02:13;99445.50;;;21.93;29.81
77588;BME280;66745;49.716;17.158;2023-02-03T06:05:13;99442.47;;;21.96;30.22
77588;BME280;66745;49.716;17.158;2023-02-03T06:08:14;99447.31;;;22.01;30.79
77588;BME280;66745;49.716;17.158;2023-02-03T06:11:14;99447.84;;;22.05;30.47
77588;BME280;66745;49.716;17.158;2023-02-03T06:14:14;99451.94;;;22.10;30.73
77588;BME280;66745;49.716;17.158;2023-02-03T06:17:15;99453.72;;;22.13;31.65
77588;BME280;66745;49.716;17.158;2023-02-03T06:20:16;99440.50;;;22.13;31.53
77588;BME280;66745;49.716;17.158;2023-02-03T06:23:17;99449.16;;;22.15;31.65
77588;BME280;66745;49.716;17.158;2023-02-03T06:26:18;99432.63;;;22.18;32.36
77588;BME280;66745;49.716;17.158;2023-02-03T06:29:18;99425.75;;;22.19;31.69
77588;BME280;66745;49.716;17.158;2023-02-03T06:32:18;99408.44;;;22.14;31.67
77588;BME280;66745;49.716;17.158;2023-02-03T06:35:19;99398.75;;;22.10;31.49
77588;BME280;66745;49.716;17.158;2023-02-03T06:38:19;99401.53;;;22.04;32.30
77588;BME280;66745;49.716;17.158;2023-02-03T06:41:19;99397.72;;;22.02;32.29
77588;BME280;66745;49.716;17.158;2023-02-03T06:44:20;99386.28;;;22.00;32.23
77588;BME280;66745;49.716;17.158;2023-02-03T06:47:20;99370.50;;;21.97;31.65
77588;BME280;66745;49.716;17.158;2023-02-03T06:50:20;99370.50;;;21.97;32.08
77588;BME280;66745;49.716;17.158;2023-02-03T06:53:21;99376.09;;;21.97;31.45
77588;BME280;66745;49.716;17.158;2023-02-03T06:56:21;99372.78;;;21.98;31.91
77588;BME280;66745;49.716;17.158;2023-02-03T06:59:21;99371.53;;;21.99;31.71
77588;BME280;66745;49.716;17.158;2023-02-03T07:02:22;99370.22;;;22.00;31.82
77588;BME280;66745;49.716;17.158;2023-02-03T07:05:22;99376.88;;;22.03;30.93
77588;BME280;66745;49.716;17.158;2023-02-03T07:08:23;99371.00;;;22.06;31.66
77588;BME280;66745;49.716;17.158;2023-02-03T07:11:23;99372.56;;;22.13;32.56
77588;BME280;66745;49.716;17.158;2023-02-03T07:14:24;99353.25;;;22.15;31.93
77588;BME280;66745;49.716;17.158;2023-02-03T07:17:24;99362.66;;;22.18;33.04
77588;BME280;66745;49.716;17.158;2023-02-03T07:20:24;99358.84;;;22.21;32.35
77588;BME280;66745;49.716;17.158;2023-02-03T07:23:25;99347.91;;;22.23;32.48
77588;BME280;66745;49.716;17.158;2023-02-03T07:26:26;99340.75;;;22.27;31.75
77588;BME280;66745;49.716;17.158;2023-02-03T07:29:26;99333.41;;;22.30;31.76
77588;BME280;66745;49.716;17.158;2023-02-03T07:32:26;99324.75;;;22.33;31.72
77588;BME280;66745;49.716;17.158;2023-02-03T07:35:27;99325.78;;;22.36;33.03
77588;BME280;66745;49.716;17.158;2023-02-03T07:38:28;99319.16;;;22.39;32.93
77588;BME280;66745;49.716;17.158;2023-02-03T07:41:28;99318.66;;;22.40;32.22
77588;BME280;66745;49.716;17.158;2023-02-03T07:44:29;99317.63;;;22.43;32.90
77588;BME280;66745;49.716;17.158;2023-02-03T07:47:29;99310.75;;;22.44;32.90
77588;BME280;66745;49.716;17.158;2023-02-03T07:50:30;99305.41;;;22.46;32.93
77588;BME280;66745;49.716;17.158;2023-02-03T07:53:32;99298.03;;;22.49;32.67
77588;BME280;66745;49.716;17.158;2023-02-03T07:56:33;99287.06;;;22.51;32.44
77588;BME280;66745;49.716;17.158;2023-02-03T07:59:34;99297.00;;;22.52;32.84
77588;BME280;66745;49.716;17.158;2023-02-03T08:02:34;99283.75;;;22.58;33.98
77588;BME280;66745;49.716;17.158;2023-02-03T08:05:35;99268.00;;;22.72;35.63
77588;BME280;66745;49.716;17.158;2023-02-03T08:08:35;99266.69;;;22.78;36.35
77588;BME280;66745;49.716;17.158;2023-02-03T08:11:35;99241.44;;;21.56;24.72
77588;BME280;66745;49.716;17.158;2023-02-03T08:14:36;99257.72;;;20.98;27.72
77588;BME280;66745;49.716;17.158;2023-02-03T08:17:36;99246.13;;;21.11;29.23
77588;BME280;66745;49.716;17.158;2023-02-03T08:20:39;99229.94;;;21.32;30.05
77588;BME280;66745;49.716;17.158;2023-02-03T08:23:40;99226.44;;;21.53;30.08
77588;BME280;66745;49.716;17.158;2023-02-03T08:26:40;99234.88;;;21.76;30.21
77588;BME280;66745;49.716;17.158;2023-02-03T08:29:41;99228.31;;;21.90;30.25
77588;BME280;66745;49.716;17.158;2023-02-03T08:32:42;99222.69;;;22.01;29.91
77588;BME280;66745;49.716;17.158;2023-02-03T08:35:46;99218.63;;;22.07;29.96
77588;BME280;66745;49.716;17.158;2023-02-03T08:38:46;99212.28;;;22.12;29.47
77588;BME280;66745;49.716;17.158;2023-02-03T08:41:47;99209.22;;;22.16;29.84
77588;BME280;66745;49.716;17.158;2023-02-03T08:44:47;99204.63;;;22.19;29.77
77588;BME280;66745;49.716;17.158;2023-02-03T08:47:48;99203.13;;;22.23;30.37
77588;BME280;66745;49.716;17.158;2023-02-03T08:50:49;99201.81;;;22.24;29.53
77588;BME280;66745;49.716;17.158;2023-02-03T08:53:51;99199.53;;;22.28;29.93
77588;BME280;66745;49.716;17.158;2023-02-03T08:56:52;99185.53;;;22.28;29.81
77588;BME280;66745;49.716;17.158;2023-02-03T08:59:52;99180.97;;;22.31;29.99
77588;BME280;66745;49.716;17.158;2023-02-03T09:02:54;99183.25;;;22.32;29.75
77588;BME280;66745;49.716;17.158;2023-02-03T09:05:54;99179.16;;;22.33;29.65
77588;BME280;66745;49.716;17.158;2023-02-03T09:08:54;99173.56;;;22.33;30.61
77588;BME280;66745;49.716;17.158;2023-02-03T09:11:54;99164.44;;;22.33;30.49
77588;BME280;66745;49.716;17.158;2023-02-03T09:15:01;99154.75;;;22.34;29.69
77588;BME280;66745;49.716;17.158;2023-02-03T09:18:02;99141.50;;;22.34;29.98
77588;BME280;66745;49.716;17.158;2023-02-03T09:21:02;99140.75;;;22.34;30.07
77588;BME280;66745;49.716;17.158;2023-02-03T09:24:03;99127.50;;;22.34;30.16
77588;BME280;66745;49.716;17.158;2023-02-03T09:27:05;99124.22;;;22.36;31.03
77588;BME280;66745;49.716;17.158;2023-02-03T09:30:05;99123.44;;;22.35;30.38
77588;BME280;66745;49.716;17.158;2023-02-03T09:33:06;99118.63;;;22.36;29.73
77588;BME280;66745;49.716;17.158;2023-02-03T09:36:06;99111.72;;;22.37;30.66
77588;BME280;66745;49.716;17.158;2023-02-03T09:39:07;99105.34;;;22.36;30.82
77588;BME280;66745;49.716;17.158;2023-02-03T09:45:13;99104.63;;;22.36;30.83
77588;BME280;66745;49.716;17.158;2023-02-03T09:48:19;99094.94;;;22.37;29.99
77588;BME280;66745;49.716;17.158;2023-02-03T09:51:26;99090.09;;;22.37;30.34
77588;BME280;66745;49.716;17.158;2023-02-03T09:57:42;99089.31;;;22.37;30.37
77588;BME280;66745;49.716;17.158;2023-02-03T10:00:53;99082.97;;;22.36;30.20
77588;BME280;66745;49.716;17.158;2023-02-03T10:04:21;99067.47;;;22.35;30.80
77588;BME280;66745;49.716;17.158;2023-02-03T10:07:24;99070.25;;;22.35;30.72
77588;BME280;66745;49.716;17.158;2023-02-03T10:10:34;99050.66;;;22.35;30.41
77588;BME280;66745;49.716;17.158;2023-02-03T10:13:45;99061.88;;;22.35;30.64
77588;BME280;66745;49.716;17.158;2023-02-03T10:23:16;99026.75;;;22.34;30.75
77588;BME280;66745;49.716;17.158;2023-02-03T10:26:18;99035.91;;;22.35;30.49
77588;BME280;66745;49.716;17.158;2023-02-03T10:29:56;99021.13;;;22.34;30.69
77588;BME280;66745;49.716;17.158;2023-02-03T10:32:53;98999.50;;;22.35;30.00
77588;BME280;66745;49.716;17.158;2023-02-03T10:36:29;99016.06;;;22.33;30.45
77588;BME280;66745;49.716;17.158;2023-02-03T10:42:29;98977.38;;;22.31;30.79
77588;BME280;66745;49.716;17.158;2023-02-03T10:45:50;98967.72;;;22.32;30.38
77588;BME280;66745;49.716;17.158;2023-02-03T10:48:50;98956.53;;;22.32;30.05
77588;BME280;66745;49.716;17.158;2023-02-03T10:51:53;98959.31;;;22.32;30.71
77588;BME280;66745;49.716;17.158;2023-02-03T10:54:57;98938.97;;;22.32;30.58
77588;BME280;66745;49.716;17.158;2023-02-03T10:58:04;98927.00;;;22.31;30.53
77588;BME280;66745;49.716;17.158;2023-02-03T11:04:08;98927.53;;;22.30;30.06
77588;BME280;66745;49.716;17.158;2023-02-03T11:07:24;98906.75;;;21.06;29.89
77588;BME280;66745;49.716;17.158;2023-02-03T11:10:32;98906.78;;;21.29;33.89
77588;BME280;66745;49.716;17.158;2023-02-03T11:13:34;98889.41;;;21.58;34.19
77588;BME280;66745;49.716;17.158;2023-02-03T11:16:35;98886.50;;;21.80;32.90
77588;BME280;66745;49.716;17.158;2023-02-03T11:19:36;98877.09;;;21.94;32.52
77588;BME280;66745;49.716;17.158;2023-02-03T11:22:37;98873.47;;;22.05;33.01
77588;BME280;66745;49.716;17.158;2023-02-03T11:25:39;98866.81;;;22.13;33.07
77588;BME280;66745;49.716;17.158;2023-02-03T11:28:41;98847.94;;;22.20;33.28
77588;BME280;66745;49.716;17.158;2023-02-03T11:31:43;98847.91;;;21.73;33.53
77588;BME280;66745;49.716;17.158;2023-02-03T11:34:56;98824.22;;;21.85;33.77
77588;BME280;66745;49.716;17.158;2023-02-03T11:37:58;98831.81;;;21.96;33.31
77588;BME280;66745;49.716;17.158;2023-02-03T11:40:59;98807.09;;;22.05;32.74
77588;BME280;66745;49.716;17.158;2023-02-03T11:44:09;98802.97;;;22.12;33.06
77588;BME280;66745;49.716;17.158;2023-02-03T11:47:11;98802.16;;;22.17;32.79
77588;BME280;66745;49.716;17.158;2023-02-03T12:00:02;98758.06;;;22.29;33.68
77588;BME280;66745;49.716;17.158;2023-02-03T12:03:08;98751.19;;;22.30;34.08
77588;BME280;66745;49.716;17.158;2023-02-03T12:06:16;98745.28;;;22.33;33.16
77588;BME280;66745;49.716;17.158;2023-02-03T12:09:37;98731.28;;;22.33;34.50
77588;BME280;66745;49.716;17.158;2023-02-03T12:22:19;98695.91;;;22.36;34.58
77588;BME280;66745;49.716;17.158;2023-02-03T12:41:18;98662.13;;;22.28;33.70
77588;BME280;66745;49.716;17.158;2023-02-03T12:44:25;98656.53;;;22.28;33.29
77588;BME280;66745;49.716;17.158;2023-02-03T12:50:37;98642.03;;;22.30;33.13
77588;BME280;66745;49.716;17.158;2023-02-03T12:53:40;98621.69;;;22.29;33.87
77588;BME280;66745;49.716;17.158;2023-02-03T12:56:44;98613.72;;;22.33;33.94
77588;BME280;66745;49.716;17.158;2023-02-03T13:12:35;98588.03;;;22.35;34.33
77588;BME280;66745;49.716;17.158;2023-02-03T13:15:42;98582.94;;;22.33;34.75
77588;BME280;66745;49.716;17.158;2023-02-03T13:18:45;98572.00;;;22.35;34.02
77588;BME280;66745;49.716;17.158;2023-02-03T13:21:49;98560.25;;;22.37;34.67
77588;BME280;66745;49.716;17.158;2023-02-03T13:24:54;98564.34;;;22.36;34.89
77588;BME280;66745;49.716;17.158;2023-02-03T13:40:49;98555.78;;;22.28;34.04
77588;BME280;66745;49.716;17.158;2023-02-03T13:43:55;98528.63;;;22.23;31.95
77588;BME280;66745;49.716;17.158;2023-02-03T13:46:56;98526.19;;;22.14;33.40
77588;BME280;66745;49.716;17.158;2023-02-03T13:49:59;98509.69;;;22.10;33.50
77588;BME280;66745;49.716;17.158;2023-02-03T13:53:04;98508.16;;;22.09;34.02
77588;BME280;66745;49.716;17.158;2023-02-03T13:56:41;98499.75;;;22.09;33.32
77588;BME280;66745;49.716;17.158;2023-02-03T14:02:40;98485.72;;;22.15;33.83
77588;BME280;66745;49.716;17.158;2023-02-03T14:05:42;98478.31;;;22.18;34.05
77588;BME280;66745;49.716;17.158;2023-02-03T14:08:47;98474.47;;;22.21;33.68
77588;BME280;66745;49.716;17.158;2023-02-03T14:11:51;98461.97;;;22.22;33.98
77588;BME280;66745;49.716;17.158;2023-02-03T14:20:53;98445.09;;;22.27;34.33
77588;BME280;66745;49.716;17.158;2023-02-03T14:24:01;98440.28;;;22.28;33.74
77588;BME280;66745;49.716;17.158;2023-02-03T14:27:04;98415.84;;;22.28;34.34
77588;BME280;66745;49.716;17.158;2023-02-03T14:30:12;98411.78;;;22.29;34.27
77588;BME280;66745;49.716;17.158;2023-02-03T14:33:13;98405.63;;;22.31;34.50
77588;BME280;66745;49.716;17.158;2023-02-03T14:39:41;98398.00;;;22.31;34.71
77588;BME280;66745;49.716;17.158;2023-02-03T14:58:56;98359.03;;;22.33;35.41
77588;BME280;66745;49.716;17.158;2023-02-03T15:04:38;98341.50;;;22.33;35.27
77588;BME280;66745;49.716;17.158;2023-02-03T15:07:42;98352.88;;;22.03;30.63
77588;BME280;66745;49.716;17.158;2023-02-03T15:10:48;98343.31;;;21.93;35.94
77588;BME280;66745;49.716;17.158;2023-02-03T15:13:57;98362.75;;;22.04;35.48
77588;BME280;66745;49.716;17.158;2023-02-03T15:17:21;98361.63;;;22.12;35.56
77588;BME280;66745;49.716;17.158;2023-02-03T15:20:38;98369.97;;;22.18;36.17
77588;BME280;66745;49.716;17.158;2023-02-03T15:23:41;98380.59;;;22.20;35.61
77588;BME280;66745;49.716;17.158;2023-02-03T15:26:46;98386.97;;;22.20;36.34
77588;BME280;66745;49.716;17.158;2023-02-03T15:29:48;98417.19;;;22.22;35.99
77588;BME280;66745;49.716;17.158;2023-02-03T15:32:56;98433.00;;;22.19;35.97
77588;BME280;66745;49.716;17.158;2023-02-03T15:36:04;98472.19;;;22.19;35.46
77588;BME280;66745;49.716;17.158;2023-02-03T15:45:31;98518.06;;;22.10;34.36
77588;BME280;66745;49.716;17.158;2023-02-03T15:48:36;98478.69;;;22.08;35.04
77588;BME280;66745;49.716;17.158;2023-02-03T15:51:46;98411.75;;;22.10;34.41
77588;BME280;66745;49.716;17.158;2023-02-03T15:54:49;98429.00;;;22.14;34.69
77588;BME280;66745;49.716;17.158;2023-02-03T15:57:53;98441.41;;;22.19;35.50
77588;BME280;66745;49.716;17.158;2023-02-03T16:00:58;98455.19;;;22.17;35.20
77588;BME280;66745;49.716;17.158;2023-02-03T16:03:59;98471.66;;;22.21;36.21
77588;BME280;66745;49.716;17.158;2023-02-03T16:07:00;98464.03;;;22.21;35.19
77588;BME280;66745;49.716;17.158;2023-02-03T16:10:00;98482.09;;;22.20;35.50
77588;BME280;66745;49.716;17.158;2023-02-03T16:19:14;98505.47;;;22.23;35.05
77588;BME280;66745;49.716;17.158;2023-02-03T16:22:28;98514.63;;;22.23;35.30
77588;BME280;66745;49.716;17.158;2023-02-03T16:25:30;98507.72;;;22.24;35.09
77588;BME280;66745;49.716;17.158;2023-02-03T16:28:30;98515.63;;;22.26;34.11
77588;BME280;66745;49.716;17.158;2023-02-03T16:31:49;98505.94;;;22.27;34.35
77588;BME280;66745;49.716;17.158;2023-02-03T16:35:08;98488.59;;;22.28;34.25
77588;BME280;66745;49.716;17.158;2023-02-03T16:38:27;98515.53;;;22.31;34.14
77588;BME280;66745;49.716;17.158;2023-02-03T16:41:46;98505.88;;;22.32;34.85
77588;BME280;66745;49.716;17.158;2023-02-03T16:45:09;98503.28;;;22.34;33.85
77588;BME280;66745;49.716;17.158;2023-02-03T16:48:30;98521.06;;;22.37;34.57
77588;BME280;66745;49.716;17.158;2023-02-03T16:51:48;98507.84;;;22.37;34.75
77588;BME280;66745;49.716;17.158;2023-02-03T16:54:49;98510.13;;;22.39;34.59
77588;BME280;66745;49.716;17.158;2023-02-03T16:57:50;98507.53;;;22.41;34.49
77588;BME280;66745;49.716;17.158;2023-02-03T17:00:50;98507.75;;;22.43;34.43
77588;BME280;66745;49.716;17.158;2023-02-03T17:03:51;98514.34;;;22.45;33.92
77588;BME280;66745;49.716;17.158;2023-02-03T17:06:52;98521.47;;;22.46;33.70
77588;BME280;66745;49.716;17.158;2023-02-03T17:09:52;98528.59;;;22.47;34.22
77588;BME280;66745;49.716;17.158;2023-02-03T17:12:52;98516.84;;;22.49;33.55
77588;BME280;66745;49.716;17.158;2023-02-03T17:15:53;98521.94;;;22.50;33.35
77588;BME280;66745;49.716;17.158;2023-02-03T17:18:53;98518.59;;;22.52;33.84
77588;BME280;66745;49.716;17.158;2023-02-03T17:21:54;98532.81;;;22.54;33.49
77588;BME280;66745;49.716;17.158;2023-02-03T17:24:55;98542.22;;;22.56;33.32
77588;BME280;66745;49.716;17.158;2023-02-03T17:27:55;98546.50;;;22.57;34.15
77588;BME280;66745;49.716;17.158;2023-02-03T17:30:59;98542.66;;;22.60;33.80
77588;BME280;66745;49.716;17.158;2023-02-03T17:34:00;98552.03;;;22.63;33.01
77588;BME280;66745;49.716;17.158;2023-02-03T17:37:00;98543.91;;;22.65;33.48
77588;BME280;66745;49.716;17.158;2023-02-03T17:40:01;98550.50;;;22.67;33.64
77588;BME280;66745;49.716;17.158;2023-02-03T17:43:01;98558.59;;;22.71;33.76
77588;BME280;66745;49.716;17.158;2023-02-03T17:46:03;98605.16;;;22.74;32.90
77588;BME280;66745;49.716;17.158;2023-02-03T17:49:04;98627.31;;;22.72;33.21
77588;BME280;66745;49.716;17.158;2023-02-03T17:52:04;98632.69;;;22.70;33.25
77588;BME280;66745;49.716;17.158;2023-02-03T17:55:05;98631.72;;;22.67;32.80
77588;BME280;66745;49.716;17.158;2023-02-03T17:58:05;98636.56;;;22.67;33.08
77588;BME280;66745;49.716;17.158;2023-02-03T18:01:08;98640.88;;;22.68;33.47
77588;BME280;66745;49.716;17.158;2023-02-03T18:04:08;98650.69;;;22.75;32.51
77588;BME280;66745;49.716;17.158;2023-02-03T18:07:09;98652.69;;;22.80;32.95
77588;BME280;66745;49.716;17.158;2023-02-03T18:10:09;98647.09;;;22.80;33.34
77588;BME280;66745;49.716;17.158;2023-02-03T18:13:10;98655.22;;;22.83;32.66
77588;BME280;66745;49.716;17.158;2023-02-03T18:16:14;98662.78;;;22.88;32.99